KPXE

Details ICAO KPXE
Name PERRY HOUSTON CO
Region United States
Timezone America/New_York (UTC-5.0)
Plans Departing 2
Arriving 1
Stats Elevation 418 ft / 127 m (AMSL)
Location 32.510574° -83.767346°
Runways 1
Magnetic Variation 5.386° W
Sunrise 2017-12-12 12:29:00 UTC / 2017-12-12 07:29:00 Local
Sunset 2017-12-12 22:31:41 UTC / 2017-12-12 17:31:41 Local
Advertisement - Login to hide

Runways

ID Width Length Bearing (true) Bearing (mag) Surface Threshold Offset Overrun Length
18 100 ft / 30 m 5,013 ft / 1,528 m 179.48° 184.87° Asphalt 0 ft / 0 m 0 ft / 0 m
36 100 ft / 30 m 5,013 ft / 1,528 m 359.48° 4.87° Asphalt 0 ft / 0 m 0 ft / 0 m

Approach Navaids

Runway Type Ident Frequency Range Bearing (true) Bearing (mag) Slope Elevation
36 Localiser IPXE 109.15 MHz 18 nm / 33 km 359.40° 4.79° - 418 ft / 127 m (AMSL)

Map

Weather


0- 5 10 15 20 25 30 35+ Temperature / ° C

Clouds and Precipitation
Forecast for 2017-12-12 18:00 UTC. Updated an hour ago

Ground ~20,000 ft ~40,000 ft Winds

METAR

KPXE 121435Z AUTO 28009KT 10SM CLR 09/04 A2990 RMK AO2 T00880045

TAF

Not found

Frequencies

Recorded 123.82 MHz AWOS 3
Approach 119.60 MHz ATLANTA APP/DEP
Unicom 122.70 MHz CTAF/UNICOM
Approach 124.20 MHz ATLANTA APP/DEP
Warning: Do not use this data for real-world aviation or navigation. No guarantee of current accuracy is given.